Senshin Maru — JD2065 — position and weather

sailwx.info

Track history (hours):
 
Tides and Currents Weather Stations Pressure Air Temp Water Temp Dewpoint Dewpoint Depression Visibility Wind Speed Wind Dir Waves Ship Positions

Senshin Maru

Last reported at 2018-Feb-23 00:21 UTC. Time now 2018-Feb-23 00:49 UTC.
Position N 35°32' E 139°46'.

Length 76 m.

Type: Cargo ship. MMSI: 431101099.

Date/timePositionNaut miles runAvg speedWind from/ knotsBaromVisibWave heightAir tempDewpointWater temp
2018-Feb-23 00:21N 35°32' E 139°46'0 0.1
2018-Feb-23 00:00N 35°32' E 139°46'0 0.0
2018-Feb-22 23:30N 35°32' E 139°46'2 5.0
2018-Feb-22 23:00N 35°30' E 139°48'2 3.3
2018-Feb-22 22:30N 35°28' E 139°48'0 0.0
2018-Feb-22 22:00N 35°28' E 139°48'0 0.0
2018-Feb-22 21:27N 35°28' E 139°48'0 0.0
2018-Feb-22 21:00N 35°28' E 139°48'0 0.0
2018-Feb-22 20:27N 35°28' E 139°48'0 0.0
2018-Feb-22 20:00N 35°28' E 139°48'4 8.5
2018-Feb-22 19:30N 35°24' E 139°46'611.5
2018-Feb-22 19:00N 35°19' E 139°44'610.8
2018-Feb-22 18:29N 35°14' E 139°47'511.3
2018-Feb-22 18:00N 35°09' E 139°46'611.3
2018-Feb-22 17:30N 35°04' E 139°43'611.5
2018-Feb-22 17:00N 34°60' E 139°37'2411.6
2018-Feb-22 14:56N 34°46' E 139°14'1610.7
2018-Feb-22 13:24N 34°36' E 138°58'13 9.5
2018-Feb-22 12:03N 34°40' E 138°43'211.4
2018-Feb-22 11:53N 34°42' E 138°42'511.7
2018-Feb-22 11:28N 34°46' E 138°39'712.1
2018-Feb-22 10:56N 34°52' E 138°36'612.8
2018-Feb-22 10:26N 34°58' E 138°33'4 9.4
2018-Feb-22 10:00N 35°02' E 138°32'0 0.0
2018-Feb-22 09:30N 35°02' E 138°32'1 2.2
2018-Feb-22 09:00N 35°01' E 138°31'2 3.8
2018-Feb-22 08:30N 34°60' E 138°30'0 0.0
2018-Feb-22 08:00N 34°60' E 138°30'0 0.0
2018-Feb-22 07:30N 34°60' E 138°30'0 0.0
2018-Feb-22 07:00N 34°60' E 138°30'0 0.0
2018-Feb-22 06:30N 34°60' E 138°30'0 0.0
2018-Feb-22 06:00N 34°60' E 138°30'0 0.0
2018-Feb-22 05:30N 34°60' E 138°30'0 0.0
2018-Feb-22 05:00N 34°60' E 138°30'0 0.0
2018-Feb-22 04:24N 34°60' E 138°30'0 0.0
2018-Feb-22 04:00N 34°60' E 138°30'0 0.0
2018-Feb-22 03:30N 34°60' E 138°30'0 0.0
2018-Feb-22 03:00N 34°60' E 138°30'0 0.0
2018-Feb-22 02:30N 34°60' E 138°30'0 0.0
2018-Feb-22 02:00N 34°60' E 138°30'0 0.0
2018-Feb-22 01:30N 34°60' E 138°30'0 0.0
2018-Feb-22 01:00N 34°60' E 138°30'0 0.0
2018-Feb-22 00:30N 34°60' E 138°30'0 0.0
2018-Feb-22 00:00N 34°60' E 138°30'0 0.0
2018-Feb-21 23:30N 34°60' E 138°30'0 0.0
2018-Feb-21 23:00N 34°60' E 138°30'0 0.0
2018-Feb-21 22:30N 34°60' E 138°30'2 3.3
2018-Feb-21 22:00N 35°01' E 138°30'2 3.1
2018-Feb-21 21:30N 35°02' E 138°32'0 0.0
2018-Feb-21 21:00N 35°02' E 138°32'0 0.1
2018-Feb-21 20:28N 35°02' E 138°32'0 0.0
2018-Feb-21 19:58N 35°02' E 138°32'0 0.0
2018-Feb-21 19:29N 35°02' E 138°32'0 0.0
2018-Feb-21 18:56N 35°02' E 138°32'0 0.0
2018-Feb-21 18:23N 35°02' E 138°32'0 0.0
2018-Feb-21 17:56N 35°02' E 138°32'0 0.0
2018-Feb-21 17:29N 35°02' E 138°32'0 0.0
2018-Feb-21 16:56N 35°02' E 138°32'0 0.0
2018-Feb-21 16:29N 35°02' E 138°32'0 0.0
2018-Feb-21 15:59N 35°02' E 138°32'0 0.0
2018-Feb-21 15:31N 35°02' E 138°32'0 0.0
2018-Feb-21 15:00N 35°02' E 138°32'0 0.0
2018-Feb-21 14:31N 35°02' E 138°32'0 0.0
2018-Feb-21 13:58N 35°02' E 138°32'0 0.0
2018-Feb-21 13:28N 35°02' E 138°32'0 0.0
2018-Feb-21 13:01N 35°02' E 138°32'0 0.0
2018-Feb-21 12:31N 35°02' E 138°32'0 0.0
2018-Feb-21 11:59N 35°02' E 138°32'0 0.0
2018-Feb-21 11:30N 35°02' E 138°32'0 0.1
2018-Feb-21 10:57N 35°02' E 138°32'0 0.0
2018-Feb-21 10:30N 35°02' E 138°32'0 0.1
2018-Feb-21 10:00N 35°02' E 138°32'0 0.1
2018-Feb-21 09:28N 35°02' E 138°32'0 0.1
2018-Feb-21 08:58N 35°02' E 138°32'0 0.1
2018-Feb-21 08:28N 35°02' E 138°32'0 0.0
2018-Feb-21 08:00N 35°02' E 138°32'0 0.0
2018-Feb-21 07:30N 35°02' E 138°32'0 0.0
2018-Feb-21 07:00N 35°02' E 138°32'0 0.1
2018-Feb-21 06:27N 35°02' E 138°32'0 0.0
2018-Feb-21 06:00N 35°02' E 138°32'0 0.1
2018-Feb-21 05:30N 35°02' E 138°32'3 6.0
2018-Feb-21 04:59N 34°60' E 138°34'612.2
2018-Feb-21 04:30N 34°54' E 138°37'612.5
2018-Feb-21 04:00N 34°48' E 138°39'22 0.6
2018-Feb-19 12:11N 34°40' E 139°04'511.6
2018-Feb-19 11:47N 34°37' E 138°60'411.4
2018-Feb-19 11:27N 34°35' E 138°56'611.2
2018-Feb-19 10:57N 34°36' E 138°49'710.0
2018-Feb-19 10:13N 34°41' E 138°42'2 9.9
2018-Feb-19 09:59N 34°43' E 138°41'610.8
2018-Feb-19 09:28N 34°48' E 138°39'511.6
2018-Feb-19 09:00N 34°53' E 138°36'612.0
2018-Feb-19 08:30N 34°59' E 138°34'4 7.4
2018-Feb-19 08:00N 35°01' E 138°30'0 0.4
2018-Feb-19 07:28N 35°01' E 138°30'0 0.1
2018-Feb-19 06:58N 35°01' E 138°30'0 0.0
2018-Feb-19 06:28N 35°01' E 138°30'0 0.0
2018-Feb-19 05:59N 35°01' E 138°30'0 0.1
2018-Feb-19 05:28N 35°01' E 138°30'0 0.0
2018-Feb-19 04:58N 35°01' E 138°30'0 0.0
2018-Feb-19 04:28N 35°01' E 138°30'0 0.0
2018-Feb-19 03:58N 35°01' E 138°30'0 0.0
2018-Feb-19 03:29N 35°01' E 138°30'0 0.0
2018-Feb-19 02:59N 35°01' E 138°30'0 0.0
2018-Feb-19 02:25N 35°01' E 138°30'0 0.0
2018-Feb-19 01:58N 35°01' E 138°30'0 0.0
2018-Feb-19 01:29N 35°01' E 138°30'0 0.0
2018-Feb-19 00:53N 35°01' E 138°30'0 0.0
2018-Feb-19 00:26N 35°01' E 138°30'0 0.0
2018-Feb-18 23:59N 35°01' E 138°30'0 0.0
2018-Feb-18 23:29N 35°01' E 138°30'0 0.0
2018-Feb-18 22:59N 35°01' E 138°30'0 0.0
2018-Feb-18 22:29N 35°01' E 138°30'0 0.0
2018-Feb-18 21:59N 35°01' E 138°30'0 0.0
2018-Feb-18 21:29N 35°01' E 138°30'0 0.0
2018-Feb-18 20:59N 35°01' E 138°30'0 0.0
2018-Feb-18 20:29N 35°01' E 138°30'0 0.0
2018-Feb-18 19:59N 35°01' E 138°30'0 0.0
2018-Feb-18 19:29N 35°01' E 138°30'0 0.0
2018-Feb-18 18:59N 35°01' E 138°30'0 0.0
2018-Feb-18 18:29N 35°01' E 138°30'0 0.0
2018-Feb-18 17:56N 35°01' E 138°30'0 0.0
2018-Feb-18 17:29N 35°01' E 138°30'0 0.0
2018-Feb-18 16:56N 35°01' E 138°30'0 0.0
2018-Feb-18 16:29N 35°01' E 138°30'0 0.0
2018-Feb-18 15:59N 35°01' E 138°30'0 0.0
2018-Feb-18 15:29N 35°01' E 138°30'0 0.0
2018-Feb-18 14:59N 35°01' E 138°30'0 0.0
2018-Feb-18 14:29N 35°01' E 138°30'0 0.0
2018-Feb-18 13:59N 35°01' E 138°30'0 0.0
2018-Feb-18 13:29N 35°01' E 138°30'0 0.0
2018-Feb-18 12:59N 35°01' E 138°30'0 0.0
2018-Feb-18 12:29N 35°01' E 138°30'0 0.0
2018-Feb-18 11:59N 35°01' E 138°30'0 0.0
2018-Feb-18 11:29N 35°01' E 138°30'0 0.0
2018-Feb-18 10:59N 35°01' E 138°30'0 0.0
2018-Feb-18 10:29N 35°01' E 138°30'0 0.0
2018-Feb-18 09:56N 35°01' E 138°30'0 0.0
2018-Feb-18 09:29N 35°01' E 138°30'0 0.0
2018-Feb-18 08:56N 35°01' E 138°30'0 0.0
2018-Feb-18 08:29N 35°01' E 138°30'0 0.0
2018-Feb-18 07:59N 35°01' E 138°30'0 0.0
2018-Feb-18 07:29N 35°01' E 138°30'0 0.0
2018-Feb-18 06:59N 35°01' E 138°30'0 0.0
2018-Feb-18 06:29N 35°01' E 138°30'0 0.0
2018-Feb-18 05:59N 35°01' E 138°30'0 0.0
2018-Feb-18 05:29N 35°01' E 138°30'0 0.0
2018-Feb-18 04:59N 35°01' E 138°30'0 0.0
2018-Feb-18 04:29N 35°01' E 138°30'0 0.0
2018-Feb-18 03:59N 35°01' E 138°30'0 0.0
2018-Feb-18 03:29N 35°01' E 138°30'1 1.2
2018-Feb-18 03:00N 35°01' E 138°30'5 9.9
2018-Feb-18 02:30N 34°58' E 138°35'612.2
2018-Feb-18 02:00N 34°52' E 138°37'  
2018-Feb-14 09:15N 41°31' E 141°13'313.1
2018-Feb-14 09:00N 41°32' E 141°09'612.3
2018-Feb-14 08:30N 41°34' E 141°01'611.7
2018-Feb-14 08:00N 41°35' E 140°53'611.6
2018-Feb-14 07:30N 41°33' E 140°46'611.9
2018-Feb-14 07:00N 41°30' E 140°40'  
Track history (hours):
 
Tides and Currents Weather Stations Pressure Air Temp Water Temp Dewpoint Dewpoint Depression Visibility Wind Speed Wind Dir Waves Ship Positions

Senshin Maru

Last reported at 2018-Feb-23 00:21 UTC. Time now 2018-Feb-23 00:49 UTC.
Position N 35°32' E 139°46'.

Length 76 m.

Type: Cargo ship. MMSI: 431101099.

Date/timePositionNaut miles runAvg speedWind from/ knotsBaromVisibWave heightAir tempDewpointWater temp
2018-Feb-23 00:21N 35°32' E 139°46'0 0.1
2018-Feb-23 00:00N 35°32' E 139°46'0 0.0
2018-Feb-22 23:30N 35°32' E 139°46'2 5.0
2018-Feb-22 23:00N 35°30' E 139°48'2 3.3
2018-Feb-22 22:30N 35°28' E 139°48'0 0.0
2018-Feb-22 22:00N 35°28' E 139°48'0 0.0
2018-Feb-22 21:27N 35°28' E 139°48'0 0.0
2018-Feb-22 21:00N 35°28' E 139°48'0 0.0
2018-Feb-22 20:27N 35°28' E 139°48'0 0.0
2018-Feb-22 20:00N 35°28' E 139°48'4 8.5
2018-Feb-22 19:30N 35°24' E 139°46'611.5
2018-Feb-22 19:00N 35°19' E 139°44'610.8
2018-Feb-22 18:29N 35°14' E 139°47'511.3
2018-Feb-22 18:00N 35°09' E 139°46'611.3
2018-Feb-22 17:30N 35°04' E 139°43'611.5
2018-Feb-22 17:00N 34°60' E 139°37'2411.6
2018-Feb-22 14:56N 34°46' E 139°14'1610.7
2018-Feb-22 13:24N 34°36' E 138°58'13 9.5
2018-Feb-22 12:03N 34°40' E 138°43'211.4
2018-Feb-22 11:53N 34°42' E 138°42'511.7
2018-Feb-22 11:28N 34°46' E 138°39'712.1
2018-Feb-22 10:56N 34°52' E 138°36'612.8
2018-Feb-22 10:26N 34°58' E 138°33'4 9.4
2018-Feb-22 10:00N 35°02' E 138°32'0 0.0
2018-Feb-22 09:30N 35°02' E 138°32'1 2.2
2018-Feb-22 09:00N 35°01' E 138°31'2 3.8
2018-Feb-22 08:30N 34°60' E 138°30'0 0.0
2018-Feb-22 08:00N 34°60' E 138°30'0 0.0
2018-Feb-22 07:30N 34°60' E 138°30'0 0.0
2018-Feb-22 07:00N 34°60' E 138°30'0 0.0
2018-Feb-22 06:30N 34°60' E 138°30'0 0.0
2018-Feb-22 06:00N 34°60' E 138°30'0 0.0
2018-Feb-22 05:30N 34°60' E 138°30'0 0.0
2018-Feb-22 05:00N 34°60' E 138°30'0 0.0
2018-Feb-22 04:24N 34°60' E 138°30'0 0.0
2018-Feb-22 04:00N 34°60' E 138°30'0 0.0
2018-Feb-22 03:30N 34°60' E 138°30'0 0.0
2018-Feb-22 03:00N 34°60' E 138°30'0 0.0
2018-Feb-22 02:30N 34°60' E 138°30'0 0.0
2018-Feb-22 02:00N 34°60' E 138°30'0 0.0
2018-Feb-22 01:30N 34°60' E 138°30'0 0.0
2018-Feb-22 01:00N 34°60' E 138°30'0 0.0
2018-Feb-22 00:30N 34°60' E 138°30'0 0.0
2018-Feb-22 00:00N 34°60' E 138°30'0 0.0
2018-Feb-21 23:30N 34°60' E 138°30'0 0.0
2018-Feb-21 23:00N 34°60' E 138°30'0 0.0
2018-Feb-21 22:30N 34°60' E 138°30'2 3.3
2018-Feb-21 22:00N 35°01' E 138°30'2 3.1
2018-Feb-21 21:30N 35°02' E 138°32'0 0.0
2018-Feb-21 21:00N 35°02' E 138°32'0 0.1
2018-Feb-21 20:28N 35°02' E 138°32'0 0.0
2018-Feb-21 19:58N 35°02' E 138°32'0 0.0
2018-Feb-21 19:29N 35°02' E 138°32'0 0.0
2018-Feb-21 18:56N 35°02' E 138°32'0 0.0
2018-Feb-21 18:23N 35°02' E 138°32'0 0.0
2018-Feb-21 17:56N 35°02' E 138°32'0 0.0
2018-Feb-21 17:29N 35°02' E 138°32'0 0.0
2018-Feb-21 16:56N 35°02' E 138°32'0 0.0
2018-Feb-21 16:29N 35°02' E 138°32'0 0.0
2018-Feb-21 15:59N 35°02' E 138°32'0 0.0
2018-Feb-21 15:31N 35°02' E 138°32'0 0.0
2018-Feb-21 15:00N 35°02' E 138°32'0 0.0
2018-Feb-21 14:31N 35°02' E 138°32'0 0.0
2018-Feb-21 13:58N 35°02' E 138°32'0 0.0
2018-Feb-21 13:28N 35°02' E 138°32'0 0.0
2018-Feb-21 13:01N 35°02' E 138°32'0 0.0
2018-Feb-21 12:31N 35°02' E 138°32'0 0.0
2018-Feb-21 11:59N 35°02' E 138°32'0 0.0
2018-Feb-21 11:30N 35°02' E 138°32'0 0.1
2018-Feb-21 10:57N 35°02' E 138°32'0 0.0
2018-Feb-21 10:30N 35°02' E 138°32'0 0.1
2018-Feb-21 10:00N 35°02' E 138°32'0 0.1
2018-Feb-21 09:28N 35°02' E 138°32'0 0.1
2018-Feb-21 08:58N 35°02' E 138°32'0 0.1
2018-Feb-21 08:28N 35°02' E 138°32'0 0.0
2018-Feb-21 08:00N 35°02' E 138°32'0 0.0
2018-Feb-21 07:30N 35°02' E 138°32'0 0.0
2018-Feb-21 07:00N 35°02' E 138°32'0 0.1
2018-Feb-21 06:27N 35°02' E 138°32'0 0.0
2018-Feb-21 06:00N 35°02' E 138°32'0 0.1
2018-Feb-21 05:30N 35°02' E 138°32'3 6.0
2018-Feb-21 04:59N 34°60' E 138°34'612.2
2018-Feb-21 04:30N 34°54' E 138°37'612.5
2018-Feb-21 04:00N 34°48' E 138°39'22 0.6
2018-Feb-19 12:11N 34°40' E 139°04'511.6
2018-Feb-19 11:47N 34°37' E 138°60'411.4
2018-Feb-19 11:27N 34°35' E 138°56'611.2
2018-Feb-19 10:57N 34°36' E 138°49'710.0
2018-Feb-19 10:13N 34°41' E 138°42'2 9.9
2018-Feb-19 09:59N 34°43' E 138°41'610.8
2018-Feb-19 09:28N 34°48' E 138°39'511.6
2018-Feb-19 09:00N 34°53' E 138°36'612.0
2018-Feb-19 08:30N 34°59' E 138°34'4 7.4
2018-Feb-19 08:00N 35°01' E 138°30'0 0.4
2018-Feb-19 07:28N 35°01' E 138°30'0 0.1
2018-Feb-19 06:58N 35°01' E 138°30'0 0.0
2018-Feb-19 06:28N 35°01' E 138°30'0 0.0
2018-Feb-19 05:59N 35°01' E 138°30'0 0.1
2018-Feb-19 05:28N 35°01' E 138°30'0 0.0
2018-Feb-19 04:58N 35°01' E 138°30'0 0.0
2018-Feb-19 04:28N 35°01' E 138°30'0 0.0
2018-Feb-19 03:58N 35°01' E 138°30'0 0.0
2018-Feb-19 03:29N 35°01' E 138°30'0 0.0
2018-Feb-19 02:59N 35°01' E 138°30'0 0.0
2018-Feb-19 02:25N 35°01' E 138°30'0 0.0
2018-Feb-19 01:58N 35°01' E 138°30'0 0.0
2018-Feb-19 01:29N 35°01' E 138°30'0 0.0
2018-Feb-19 00:53N 35°01' E 138°30'0 0.0
2018-Feb-19 00:26N 35°01' E 138°30'0 0.0
2018-Feb-18 23:59N 35°01' E 138°30'0 0.0
2018-Feb-18 23:29N 35°01' E 138°30'0 0.0
2018-Feb-18 22:59N 35°01' E 138°30'0 0.0
2018-Feb-18 22:29N 35°01' E 138°30'0 0.0
2018-Feb-18 21:59N 35°01' E 138°30'0 0.0
2018-Feb-18 21:29N 35°01' E 138°30'0 0.0
2018-Feb-18 20:59N 35°01' E 138°30'0 0.0
2018-Feb-18 20:29N 35°01' E 138°30'0 0.0
2018-Feb-18 19:59N 35°01' E 138°30'0 0.0
2018-Feb-18 19:29N 35°01' E 138°30'0 0.0
2018-Feb-18 18:59N 35°01' E 138°30'0 0.0
2018-Feb-18 18:29N 35°01' E 138°30'0 0.0
2018-Feb-18 17:56N 35°01' E 138°30'0 0.0
2018-Feb-18 17:29N 35°01' E 138°30'0 0.0
2018-Feb-18 16:56N 35°01' E 138°30'0 0.0
2018-Feb-18 16:29N 35°01' E 138°30'0 0.0
2018-Feb-18 15:59N 35°01' E 138°30'0 0.0
2018-Feb-18 15:29N 35°01' E 138°30'0 0.0
2018-Feb-18 14:59N 35°01' E 138°30'0 0.0
2018-Feb-18 14:29N 35°01' E 138°30'0 0.0
2018-Feb-18 13:59N 35°01' E 138°30'0 0.0
2018-Feb-18 13:29N 35°01' E 138°30'0 0.0
2018-Feb-18 12:59N 35°01' E 138°30'0 0.0
2018-Feb-18 12:29N 35°01' E 138°30'0 0.0
2018-Feb-18 11:59N 35°01' E 138°30'0 0.0
2018-Feb-18 11:29N 35°01' E 138°30'0 0.0
2018-Feb-18 10:59N 35°01' E 138°30'0 0.0
2018-Feb-18 10:29N 35°01' E 138°30'0 0.0
2018-Feb-18 09:56N 35°01' E 138°30'0 0.0
2018-Feb-18 09:29N 35°01' E 138°30'0 0.0
2018-Feb-18 08:56N 35°01' E 138°30'0 0.0
2018-Feb-18 08:29N 35°01' E 138°30'0 0.0
2018-Feb-18 07:59N 35°01' E 138°30'0 0.0
2018-Feb-18 07:29N 35°01' E 138°30'0 0.0
2018-Feb-18 06:59N 35°01' E 138°30'0 0.0
2018-Feb-18 06:29N 35°01' E 138°30'0 0.0
2018-Feb-18 05:59N 35°01' E 138°30'0 0.0
2018-Feb-18 05:29N 35°01' E 138°30'0 0.0
2018-Feb-18 04:59N 35°01' E 138°30'0 0.0
2018-Feb-18 04:29N 35°01' E 138°30'0 0.0
2018-Feb-18 03:59N 35°01' E 138°30'0 0.0
2018-Feb-18 03:29N 35°01' E 138°30'1 1.2
2018-Feb-18 03:00N 35°01' E 138°30'5 9.9
2018-Feb-18 02:30N 34°58' E 138°35'612.2
2018-Feb-18 02:00N 34°52' E 138°37'  
2018-Feb-14 09:15N 41°31' E 141°13'313.1
2018-Feb-14 09:00N 41°32' E 141°09'612.3
2018-Feb-14 08:30N 41°34' E 141°01'611.7
2018-Feb-14 08:00N 41°35' E 140°53'611.6
2018-Feb-14 07:30N 41°33' E 140°46'611.9
2018-Feb-14 07:00N 41°30' E 140°40'  

Dump ship's entire track history